sensor_id;sensor_type;location;lat;lon;timestamp;temperature;humidity
65207;SHT31;58477;48.072;11.970;2024-02-23T00:01:06;6.70;99.99
65207;SHT31;58477;48.072;11.970;2024-02-23T00:03:33;6.48;99.99
65207;SHT31;58477;48.072;11.970;2024-02-23T00:06:00;6.17;99.99
65207;SHT31;58477;48.072;11.970;2024-02-23T00:08:26;6.11;99.99
65207;SHT31;58477;48.072;11.970;2024-02-23T00:10:51;6.24;99.99
65207;SHT31;58477;48.072;11.970;2024-02-23T00:13:17;6.23;98.81
65207;SHT31;58477;48.072;11.970;2024-02-23T00:15:42;6.19;99.06
65207;SHT31;58477;48.072;11.970;2024-02-23T00:18:09;6.09;99.99
65207;SHT31;58477;48.072;11.970;2024-02-23T00:20:34;6.17;99.31
65207;SHT31;58477;48.072;11.970;2024-02-23T00:22:59;6.14;99.69
65207;SHT31;58477;48.072;11.970;2024-02-23T00:25:25;6.10;99.99
65207;SHT31;58477;48.072;11.970;2024-02-23T00:27:50;6.13;99.99
65207;SHT31;58477;48.072;11.970;2024-02-23T00:30:16;6.13;99.99
65207;SHT31;58477;48.072;11.970;2024-02-23T00:32:41;6.20;99.59
65207;SHT31;58477;48.072;11.970;2024-02-23T00:35:07;6.21;99.99
65207;SHT31;58477;48.072;11.970;2024-02-23T00:37:32;6.17;99.99
65207;SHT31;58477;48.072;11.970;2024-02-23T00:40:04;6.23;99.18
65207;SHT31;58477;48.072;11.970;2024-02-23T00:42:31;6.29;98.84
65207;SHT31;58477;48.072;11.970;2024-02-23T00:44:56;6.24;98.80
65207;SHT31;58477;48.072;11.970;2024-02-23T00:47:21;6.27;98.19
65207;SHT31;58477;48.072;11.970;2024-02-23T00:49:47;6.29;98.29
65207;SHT31;58477;48.072;11.970;2024-02-23T00:52:12;6.23;98.93
65207;SHT31;58477;48.072;11.970;2024-02-23T00:54:37;6.23;98.13
65207;SHT31;58477;48.072;11.970;2024-02-23T00:57:03;6.24;97.71
65207;SHT31;58477;48.072;11.970;2024-02-23T00:59:28;6.23;97.73
65207;SHT31;58477;48.072;11.970;2024-02-23T01:01:54;6.11;98.84
65207;SHT31;58477;48.072;11.970;2024-02-23T01:04:20;6.19;97.64
65207;SHT31;58477;48.072;11.970;2024-02-23T01:06:46;6.05;99.15
65207;SHT31;58477;48.072;11.970;2024-02-23T01:09:11;6.07;98.44
65207;SHT31;58477;48.072;11.970;2024-02-23T01:11:37;6.10;98.64
65207;SHT31;58477;48.072;11.970;2024-02-23T01:14:02;6.05;98.88
65207;SHT31;58477;48.072;11.970;2024-02-23T01:16:27;6.07;98.53
65207;SHT31;58477;48.072;11.970;2024-02-23T01:18:53;6.00;98.97
65207;SHT31;58477;48.072;11.970;2024-02-23T01:21:18;6.09;98.24
65207;SHT31;58477;48.072;11.970;2024-02-23T01:23:44;6.09;97.94
65207;SHT31;58477;48.072;11.970;2024-02-23T01:26:09;6.09;97.87
65207;SHT31;58477;48.072;11.970;2024-02-23T01:28:35;6.09;97.31
65207;SHT31;58477;48.072;11.970;2024-02-23T01:31:00;6.00;97.91
65207;SHT31;58477;48.072;11.970;2024-02-23T01:33:26;6.09;97.41
65207;SHT31;58477;48.072;11.970;2024-02-23T01:35:51;6.05;97.74
65207;SHT31;58477;48.072;11.970;2024-02-23T01:38:17;6.16;96.57
65207;SHT31;58477;48.072;11.970;2024-02-23T01:40:46;6.13;96.23
65207;SHT31;58477;48.072;11.970;2024-02-23T01:43:13;6.10;96.63
65207;SHT31;58477;48.072;11.970;2024-02-23T01:45:38;6.05;96.96
65207;SHT31;58477;48.072;11.970;2024-02-23T01:48:04;6.07;96.71
65207;SHT31;58477;48.072;11.970;2024-02-23T01:50:30;6.06;96.33
65207;SHT31;58477;48.072;11.970;2024-02-23T01:53:00;5.97;97.45
65207;SHT31;58477;48.072;11.970;2024-02-23T01:55:26;5.97;97.04
65207;SHT31;58477;48.072;11.970;2024-02-23T01:57:52;5.92;97.30
65207;SHT31;58477;48.072;11.970;2024-02-23T02:00:18;5.92;97.25
65207;SHT31;58477;48.072;11.970;2024-02-23T02:02:50;5.93;97.34
65207;SHT31;58477;48.072;11.970;2024-02-23T02:05:17;5.86;97.87
65207;SHT31;58477;48.072;11.970;2024-02-23T02:07:44;5.83;98.00
65207;SHT31;58477;48.072;11.970;2024-02-23T02:10:11;5.79;98.49
65207;SHT31;58477;48.072;11.970;2024-02-23T02:12:36;5.69;98.97
65207;SHT31;58477;48.072;11.970;2024-02-23T02:15:03;5.70;98.66
65207;SHT31;58477;48.072;11.970;2024-02-23T02:17:28;5.75;98.40
65207;SHT31;58477;48.072;11.970;2024-02-23T02:19:54;5.75;98.16
65207;SHT31;58477;48.072;11.970;2024-02-23T02:22:19;5.72;98.32
65207;SHT31;58477;48.072;11.970;2024-02-23T02:24:45;5.76;98.00
65207;SHT31;58477;48.072;11.970;2024-02-23T02:27:12;5.73;97.70
65207;SHT31;58477;48.072;11.970;2024-02-23T02:29:37;5.70;98.21
65207;SHT31;58477;48.072;11.970;2024-02-23T02:32:03;5.73;97.31
65207;SHT31;58477;48.072;11.970;2024-02-23T02:34:29;5.76;96.89
65207;SHT31;58477;48.072;11.970;2024-02-23T02:36:55;5.73;97.47
65207;SHT31;58477;48.072;11.970;2024-02-23T02:39:20;5.72;97.83
65207;SHT31;58477;48.072;11.970;2024-02-23T02:41:47;5.69;97.31
65207;SHT31;58477;48.072;11.970;2024-02-23T02:44:13;5.76;96.64
65207;SHT31;58477;48.072;11.970;2024-02-23T02:46:39;5.79;96.54
65207;SHT31;58477;48.072;11.970;2024-02-23T02:49:04;5.76;96.52
65207;SHT31;58477;48.072;11.970;2024-02-23T02:51:30;5.77;96.07
65207;SHT31;58477;48.072;11.970;2024-02-23T02:53:55;5.75;96.64
65207;SHT31;58477;48.072;11.970;2024-02-23T02:56:20;5.73;95.87
65207;SHT31;58477;48.072;11.970;2024-02-23T02:58:46;5.70;96.28
65207;SHT31;58477;48.072;11.970;2024-02-23T03:01:11;5.67;96.16
65207;SHT31;58477;48.072;11.970;2024-02-23T03:03:37;5.69;96.07
65207;SHT31;58477;48.072;11.970;2024-02-23T03:06:02;5.70;95.30
65207;SHT31;58477;48.072;11.970;2024-02-23T03:08:28;5.69;95.37
65207;SHT31;58477;48.072;11.970;2024-02-23T03:10:53;5.73;94.83
65207;SHT31;58477;48.072;11.970;2024-02-23T03:13:18;5.70;94.98
65207;SHT31;58477;48.072;11.970;2024-02-23T03:15:44;5.67;95.22
65207;SHT31;58477;48.072;11.970;2024-02-23T03:18:09;5.72;94.25
65207;SHT31;58477;48.072;11.970;2024-02-23T03:20:35;5.66;94.40
65207;SHT31;58477;48.072;11.970;2024-02-23T03:23:01;5.69;94.24
65207;SHT31;58477;48.072;11.970;2024-02-23T03:25:29;5.69;94.00
65207;SHT31;58477;48.072;11.970;2024-02-23T03:27:54;5.67;94.14
65207;SHT31;58477;48.072;11.970;2024-02-23T03:30:20;5.69;93.32
65207;SHT31;58477;48.072;11.970;2024-02-23T03:32:45;5.63;93.72
65207;SHT31;58477;48.072;11.970;2024-02-23T03:35:12;5.63;93.66
65207;SHT31;58477;48.072;11.970;2024-02-23T03:37:38;5.56;94.24
65207;SHT31;58477;48.072;11.970;2024-02-23T03:40:05;5.58;93.84
65207;SHT31;58477;48.072;11.970;2024-02-23T03:42:31;5.52;94.53
65207;SHT31;58477;48.072;11.970;2024-02-23T03:44:56;5.52;94.17
65207;SHT31;58477;48.072;11.970;2024-02-23T03:47:22;5.45;94.98
65207;SHT31;58477;48.072;11.970;2024-02-23T03:49:47;5.42;95.00
65207;SHT31;58477;48.072;11.970;2024-02-23T03:52:12;5.41;95.03
65207;SHT31;58477;48.072;11.970;2024-02-23T03:54:38;5.35;95.43
65207;SHT31;58477;48.072;11.970;2024-02-23T03:57:04;5.31;96.04
65207;SHT31;58477;48.072;11.970;2024-02-23T03:59:29;5.38;95.12
65207;SHT31;58477;48.072;11.970;2024-02-23T04:01:55;5.34;94.99
65207;SHT31;58477;48.072;11.970;2024-02-23T04:04:21;5.30;95.37
65207;SHT31;58477;48.072;11.970;2024-02-23T04:06:46;5.32;95.45
65207;SHT31;58477;48.072;11.970;2024-02-23T04:09:12;5.36;95.08
65207;SHT31;58477;48.072;11.970;2024-02-23T04:11:37;5.31;95.41
65207;SHT31;58477;48.072;11.970;2024-02-23T04:14:03;5.35;95.34
65207;SHT31;58477;48.072;11.970;2024-02-23T04:16:30;5.31;95.61
65207;SHT31;58477;48.072;11.970;2024-02-23T04:18:56;5.32;96.01
65207;SHT31;58477;48.072;11.970;2024-02-23T04:21:22;5.35;95.34
65207;SHT31;58477;48.072;11.970;2024-02-23T04:23:47;5.32;96.33
65207;SHT31;58477;48.072;11.970;2024-02-23T04:26:13;5.32;95.98
65207;SHT31;58477;48.072;11.970;2024-02-23T04:28:40;5.32;96.50
65207;SHT31;58477;48.072;11.970;2024-02-23T04:31:05;5.32;96.20
65207;SHT31;58477;48.072;11.970;2024-02-23T04:33:31;5.28;96.33
65207;SHT31;58477;48.072;11.970;2024-02-23T04:35:56;5.20;96.64
65207;SHT31;58477;48.072;11.970;2024-02-23T04:38:22;5.18;96.14
65207;SHT31;58477;48.072;11.970;2024-02-23T04:40:47;5.11;96.18
65207;SHT31;58477;48.072;11.970;2024-02-23T04:43:13;5.15;94.57
65207;SHT31;58477;48.072;11.970;2024-02-23T04:45:38;5.11;95.02
65207;SHT31;58477;48.072;11.970;2024-02-23T04:48:04;5.08;95.16
65207;SHT31;58477;48.072;11.970;2024-02-23T04:50:29;5.14;94.59
65207;SHT31;58477;48.072;11.970;2024-02-23T04:52:55;5.12;94.46
65207;SHT31;58477;48.072;11.970;2024-02-23T04:55:20;5.08;95.14
65207;SHT31;58477;48.072;11.970;2024-02-23T04:57:46;5.12;94.78
65207;SHT31;58477;48.072;11.970;2024-02-23T05:00:11;5.12;94.94
65207;SHT31;58477;48.072;11.970;2024-02-23T05:02:37;5.17;94.61
65207;SHT31;58477;48.072;11.970;2024-02-23T05:05:03;5.14;94.41
65207;SHT31;58477;48.072;11.970;2024-02-23T05:07:33;5.08;95.02
65207;SHT31;58477;48.072;11.970;2024-02-23T05:09:59;4.98;95.71
65207;SHT31;58477;48.072;11.970;2024-02-23T05:12:24;4.91;95.48
65207;SHT31;58477;48.072;11.970;2024-02-23T05:14:50;4.79;96.36
65207;SHT31;58477;48.072;11.970;2024-02-23T05:17:15;4.73;96.66
65207;SHT31;58477;48.072;11.970;2024-02-23T05:19:41;4.69;96.73
65207;SHT31;58477;48.072;11.970;2024-02-23T05:22:06;4.61;96.96
65207;SHT31;58477;48.072;11.970;2024-02-23T05:24:32;4.60;97.24
65207;SHT31;58477;48.072;11.970;2024-02-23T05:26:57;4.54;97.66
65207;SHT31;58477;48.072;11.970;2024-02-23T05:29:28;4.56;97.12
65207;SHT31;58477;48.072;11.970;2024-02-23T05:31:54;4.50;97.78
65207;SHT31;58477;48.072;11.970;2024-02-23T05:34:19;4.49;97.27
65207;SHT31;58477;48.072;11.970;2024-02-23T05:36:45;4.46;97.81
65207;SHT31;58477;48.072;11.970;2024-02-23T05:39:16;4.39;98.38
65207;SHT31;58477;48.072;11.970;2024-02-23T05:41:42;4.39;98.90
65207;SHT31;58477;48.072;11.970;2024-02-23T05:44:08;4.30;99.53
65207;SHT31;58477;48.072;11.970;2024-02-23T05:46:34;4.28;99.55
65207;SHT31;58477;48.072;11.970;2024-02-23T05:49:00;4.29;99.27
65207;SHT31;58477;48.072;11.970;2024-02-23T05:51:27;4.25;99.56
65207;SHT31;58477;48.072;11.970;2024-02-23T05:53:54;4.19;99.99
65207;SHT31;58477;48.072;11.970;2024-02-23T05:56:20;4.20;99.99
65207;SHT31;58477;48.072;11.970;2024-02-23T05:58:45;4.20;99.96
65207;SHT31;58477;48.072;11.970;2024-02-23T06:01:11;4.23;99.99
65207;SHT31;58477;48.072;11.970;2024-02-23T06:03:36;4.23;99.99
65207;SHT31;58477;48.072;11.970;2024-02-23T06:06:06;4.19;99.99
65207;SHT31;58477;48.072;11.970;2024-02-23T06:08:32;4.19;99.99
65207;SHT31;58477;48.072;11.970;2024-02-23T06:10:57;4.28;99.80
65207;SHT31;58477;48.072;11.970;2024-02-23T06:13:25;4.26;99.91
65207;SHT31;58477;48.072;11.970;2024-02-23T06:15:50;4.26;99.99
65207;SHT31;58477;48.072;11.970;2024-02-23T06:18:15;4.28;99.81
65207;SHT31;58477;48.072;11.970;2024-02-23T06:20:41;4.30;99.47
65207;SHT31;58477;48.072;11.970;2024-02-23T06:23:07;4.33;99.31
65207;SHT31;58477;48.072;11.970;2024-02-23T06:25:32;4.32;99.60
65207;SHT31;58477;48.072;11.970;2024-02-23T06:27:58;4.30;99.87
65207;SHT31;58477;48.072;11.970;2024-02-23T06:30:23;4.35;99.99
65207;SHT31;58477;48.072;11.970;2024-02-23T06:32:48;4.29;99.99
65207;SHT31;58477;48.072;11.970;2024-02-23T06:35:14;4.25;99.99
65207;SHT31;58477;48.072;11.970;2024-02-23T06:37:40;4.28;99.99
65207;SHT31;58477;48.072;11.970;2024-02-23T06:40:06;4.33;99.99
65207;SHT31;58477;48.072;11.970;2024-02-23T06:42:33;4.35;99.99
65207;SHT31;58477;48.072;11.970;2024-02-23T06:44:58;4.37;99.76
65207;SHT31;58477;48.072;11.970;2024-02-23T06:47:23;4.37;98.76
65207;SHT31;58477;48.072;11.970;2024-02-23T06:49:49;4.42;98.50
65207;SHT31;58477;48.072;11.970;2024-02-23T06:52:15;4.46;98.48
65207;SHT31;58477;48.072;11.970;2024-02-23T06:54:41;4.40;98.24
65207;SHT31;58477;48.072;11.970;2024-02-23T06:57:07;4.33;99.06
65207;SHT31;58477;48.072;11.970;2024-02-23T06:59:32;4.33;99.35
65207;SHT31;58477;48.072;11.970;2024-02-23T07:01:58;4.29;98.55
65207;SHT31;58477;48.072;11.970;2024-02-23T07:04:23;4.32;98.71
65207;SHT31;58477;48.072;11.970;2024-02-23T07:06:49;4.33;98.16
65207;SHT31;58477;48.072;11.970;2024-02-23T07:09:14;4.40;98.21
65207;SHT31;58477;48.072;11.970;2024-02-23T07:11:40;4.39;98.15
65207;SHT31;58477;48.072;11.970;2024-02-23T07:14:07;4.46;98.05
65207;SHT31;58477;48.072;11.970;2024-02-23T07:16:38;4.45;97.32
65207;SHT31;58477;48.072;11.970;2024-02-23T07:19:04;4.42;97.80
65207;SHT31;58477;48.072;11.970;2024-02-23T07:21:29;4.46;97.75
65207;SHT31;58477;48.072;11.970;2024-02-23T07:23:55;4.45;97.97
65207;SHT31;58477;48.072;11.970;2024-02-23T07:26:21;4.46;98.17
65207;SHT31;58477;48.072;11.970;2024-02-23T07:28:48;4.43;97.28
65207;SHT31;58477;48.072;11.970;2024-02-23T07:31:14;4.47;98.19
65207;SHT31;58477;48.072;11.970;2024-02-23T07:33:40;4.52;97.33
65207;SHT31;58477;48.072;11.970;2024-02-23T07:36:06;4.54;97.82
65207;SHT31;58477;48.072;11.970;2024-02-23T07:38:34;4.61;97.51
65207;SHT31;58477;48.072;11.970;2024-02-23T07:40:59;4.57;96.74
65207;SHT31;58477;48.072;11.970;2024-02-23T07:43:24;4.61;97.61
65207;SHT31;58477;48.072;11.970;2024-02-23T07:45:51;4.71;97.57
65207;SHT31;58477;48.072;11.970;2024-02-23T07:48:17;4.69;97.66
65207;SHT31;58477;48.072;11.970;2024-02-23T07:50:42;4.64;95.92
65207;SHT31;58477;48.072;11.970;2024-02-23T07:53:07;4.66;95.92
65207;SHT31;58477;48.072;11.970;2024-02-23T07:55:33;4.67;95.59
65207;SHT31;58477;48.072;11.970;2024-02-23T07:57:58;4.64;96.07
65207;SHT31;58477;48.072;11.970;2024-02-23T08:00:27;4.66;95.66
65207;SHT31;58477;48.072;11.970;2024-02-23T08:02:53;4.66;95.77
65207;SHT31;58477;48.072;11.970;2024-02-23T08:05:22;4.71;96.62
65207;SHT31;58477;48.072;11.970;2024-02-23T08:07:48;4.70;95.55
65207;SHT31;58477;48.072;11.970;2024-02-23T08:10:14;4.83;96.34
65207;SHT31;58477;48.072;11.970;2024-02-23T08:12:40;4.87;95.86
65207;SHT31;58477;48.072;11.970;2024-02-23T08:15:06;4.81;94.54
65207;SHT31;58477;48.072;11.970;2024-02-23T08:17:31;4.80;94.78
65207;SHT31;58477;48.072;11.970;2024-02-23T08:19:57;4.81;95.08
65207;SHT31;58477;48.072;11.970;2024-02-23T08:22:22;4.76;93.40
65207;SHT31;58477;48.072;11.970;2024-02-23T08:24:49;4.67;93.96
65207;SHT31;58477;48.072;11.970;2024-02-23T08:27:14;4.59;94.88
65207;SHT31;58477;48.072;11.970;2024-02-23T08:29:39;4.61;93.89
65207;SHT31;58477;48.072;11.970;2024-02-23T08:32:06;4.56;94.24
65207;SHT31;58477;48.072;11.970;2024-02-23T08:34:32;4.52;94.55
65207;SHT31;58477;48.072;11.970;2024-02-23T08:36:57;4.54;94.20
65207;SHT31;58477;48.072;11.970;2024-02-23T08:39:23;4.47;95.67
65207;SHT31;58477;48.072;11.970;2024-02-23T08:41:48;4.47;94.54
65207;SHT31;58477;48.072;11.970;2024-02-23T08:44:14;4.50;94.17
65207;SHT31;58477;48.072;11.970;2024-02-23T08:46:39;4.59;94.82
65207;SHT31;58477;48.072;11.970;2024-02-23T08:49:05;4.63;96.00
65207;SHT31;58477;48.072;11.970;2024-02-23T08:51:30;4.64;94.33
65207;SHT31;58477;48.072;11.970;2024-02-23T08:53:56;4.71;96.38
65207;SHT31;58477;48.072;11.970;2024-02-23T08:56:22;4.81;96.55
65207;SHT31;58477;48.072;11.970;2024-02-23T08:58:48;4.74;94.76
65207;SHT31;58477;48.072;11.970;2024-02-23T09:01:13;4.76;93.61
65207;SHT31;58477;48.072;11.970;2024-02-23T09:03:39;4.69;94.18
65207;SHT31;58477;48.072;11.970;2024-02-23T09:06:04;4.59;94.70
65207;SHT31;58477;48.072;11.970;2024-02-23T09:08:30;4.57;94.86
65207;SHT31;58477;48.072;11.970;2024-02-23T09:10:55;4.54;95.33
65207;SHT31;58477;48.072;11.970;2024-02-23T09:13:21;4.56;95.13
65207;SHT31;58477;48.072;11.970;2024-02-23T09:15:46;4.59;95.66
65207;SHT31;58477;48.072;11.970;2024-02-23T09:18:11;4.57;95.06
65207;SHT31;58477;48.072;11.970;2024-02-23T09:20:37;4.69;95.09
65207;SHT31;58477;48.072;11.970;2024-02-23T09:23:02;4.61;95.40
65207;SHT31;58477;48.072;11.970;2024-02-23T09:25:28;4.57;95.83
65207;SHT31;58477;48.072;11.970;2024-02-23T09:27:57;4.50;96.06
65207;SHT31;58477;48.072;11.970;2024-02-23T09:30:22;4.50;96.18
65207;SHT31;58477;48.072;11.970;2024-02-23T09:32:47;4.53;95.48
65207;SHT31;58477;48.072;11.970;2024-02-23T09:35:13;4.53;95.90
65207;SHT31;58477;48.072;11.970;2024-02-23T09:37:39;4.54;95.41
65207;SHT31;58477;48.072;11.970;2024-02-23T09:40:05;4.63;95.70
65207;SHT31;58477;48.072;11.970;2024-02-23T09:42:32;4.54;96.83
65207;SHT31;58477;48.072;11.970;2024-02-23T09:44:59;4.59;95.15
65207;SHT31;58477;48.072;11.970;2024-02-23T09:47:28;4.64;94.58
65207;SHT31;58477;48.072;11.970;2024-02-23T09:49:54;4.60;93.22
65207;SHT31;58477;48.072;11.970;2024-02-23T09:52:21;4.64;93.71
65207;SHT31;58477;48.072;11.970;2024-02-23T09:54:47;4.69;94.38
65207;SHT31;58477;48.072;11.970;2024-02-23T09:57:13;4.63;93.22
65207;SHT31;58477;48.072;11.970;2024-02-23T09:59:39;4.54;93.28
65207;SHT31;58477;48.072;11.970;2024-02-23T10:02:07;4.60;92.20
65207;SHT31;58477;48.072;11.970;2024-02-23T10:04:37;4.60;91.88
65207;SHT31;58477;48.072;11.970;2024-02-23T10:07:05;4.63;93.34
65207;SHT31;58477;48.072;11.970;2024-02-23T10:09:31;4.67;94.15
65207;SHT31;58477;48.072;11.970;2024-02-23T10:11:56;4.52;92.75
65207;SHT31;58477;48.072;11.970;2024-02-23T10:14:22;4.42;93.84
65207;SHT31;58477;48.072;11.970;2024-02-23T10:16:48;4.26;93.93
65207;SHT31;58477;48.072;11.970;2024-02-23T10:19:21;4.13;94.64
65207;SHT31;58477;48.072;11.970;2024-02-23T10:21:47;4.13;95.70
65207;SHT31;58477;48.072;11.970;2024-02-23T10:24:17;4.13;95.48
65207;SHT31;58477;48.072;11.970;2024-02-23T10:26:42;4.07;96.27
65207;SHT31;58477;48.072;11.970;2024-02-23T10:29:08;4.07;95.54
65207;SHT31;58477;48.072;11.970;2024-02-23T10:31:36;3.91;95.31
65207;SHT31;58477;48.072;11.970;2024-02-23T10:34:07;3.98;94.86
65207;SHT31;58477;48.072;11.970;2024-02-23T10:36:41;3.96;95.29
65207;SHT31;58477;48.072;11.970;2024-02-23T10:39:08;3.89;94.97
65207;SHT31;58477;48.072;11.970;2024-02-23T10:41:35;4.03;95.66
65207;SHT31;58477;48.072;11.970;2024-02-23T10:44:03;4.16;96.14
65207;SHT31;58477;48.072;11.970;2024-02-23T10:46:31;4.01;95.22
65207;SHT31;58477;48.072;11.970;2024-02-23T10:48:58;3.99;95.06
65207;SHT31;58477;48.072;11.970;2024-02-23T10:51:24;3.91;95.32
65207;SHT31;58477;48.072;11.970;2024-02-23T10:53:52;4.15;96.11
65207;SHT31;58477;48.072;11.970;2024-02-23T10:56:18;4.16;95.44
65207;SHT31;58477;48.072;11.970;2024-02-23T10:58:43;4.23;95.70
65207;SHT31;58477;48.072;11.970;2024-02-23T11:01:09;4.12;96.15
65207;SHT31;58477;48.072;11.970;2024-02-23T11:03:36;4.12;95.73
65207;SHT31;58477;48.072;11.970;2024-02-23T11:06:06;4.19;95.71
65207;SHT31;58477;48.072;11.970;2024-02-23T11:08:35;4.06;95.65
65207;SHT31;58477;48.072;11.970;2024-02-23T11:11:08;3.98;96.20
65207;SHT31;58477;48.072;11.970;2024-02-23T11:13:35;4.09;95.19
65207;SHT31;58477;48.072;11.970;2024-02-23T11:16:05;4.01;94.92
65207;SHT31;58477;48.072;11.970;2024-02-23T11:18:31;4.06;95.52
65207;SHT31;58477;48.072;11.970;2024-02-23T11:21:01;4.07;95.77
65207;SHT31;58477;48.072;11.970;2024-02-23T11:23:39;4.07;95.54
65207;SHT31;58477;48.072;11.970;2024-02-23T11:26:05;3.99;96.16
65207;SHT31;58477;48.072;11.970;2024-02-23T11:28:42;4.05;97.27
65207;SHT31;58477;48.072;11.970;2024-02-23T11:31:14;3.96;95.94
65207;SHT31;58477;48.072;11.970;2024-02-23T11:33:40;3.98;95.62
65207;SHT31;58477;48.072;11.970;2024-02-23T11:36:09;3.85;94.95
65207;SHT31;58477;48.072;11.970;2024-02-23T11:38:34;3.96;95.42
65207;SHT31;58477;48.072;11.970;2024-02-23T11:41:01;3.86;94.22
65207;SHT31;58477;48.072;11.970;2024-02-23T11:43:27;3.91;94.95
65207;SHT31;58477;48.072;11.970;2024-02-23T11:45:53;3.82;95.38
65207;SHT31;58477;48.072;11.970;2024-02-23T11:48:18;3.72;96.16
65207;SHT31;58477;48.072;11.970;2024-02-23T11:50:45;3.61;96.28
65207;SHT31;58477;48.072;11.970;2024-02-23T11:53:10;3.78;95.38
65207;SHT31;58477;48.072;11.970;2024-02-23T11:55:36;3.82;95.10
65207;SHT31;58477;48.072;11.970;2024-02-23T11:58:02;3.98;95.12
65207;SHT31;58477;48.072;11.970;2024-02-23T12:00:27;3.86;95.54
65207;SHT31;58477;48.072;11.970;2024-02-23T12:02:55;4.02;95.37
65207;SHT31;58477;48.072;11.970;2024-02-23T12:05:20;4.19;95.42
65207;SHT31;58477;48.072;11.970;2024-02-23T12:07:46;4.23;94.73
65207;SHT31;58477;48.072;11.970;2024-02-23T12:10:11;4.29;95.46
65207;SHT31;58477;48.072;11.970;2024-02-23T12:12:38;4.07;95.54
65207;SHT31;58477;48.072;11.970;2024-02-23T12:15:05;4.20;95.26
65207;SHT31;58477;48.072;11.970;2024-02-23T12:17:31;4.22;94.53
65207;SHT31;58477;48.072;11.970;2024-02-23T12:20:00;4.26;96.34
65207;SHT31;58477;48.072;11.970;2024-02-23T12:22:26;4.16;95.66
65207;SHT31;58477;48.072;11.970;2024-02-23T12:24:52;4.13;95.84
65207;SHT31;58477;48.072;11.970;2024-02-23T12:27:17;4.06;95.11
65207;SHT31;58477;48.072;11.970;2024-02-23T12:29:56;4.10;96.34
65207;SHT31;58477;48.072;11.970;2024-02-23T12:32:22;4.16;95.96
65207;SHT31;58477;48.072;11.970;2024-02-23T12:34:48;4.19;94.27
65207;SHT31;58477;48.072;11.970;2024-02-23T12:37:14;4.23;93.47
65207;SHT31;58477;48.072;11.970;2024-02-23T12:39:41;4.40;94.46
65207;SHT31;58477;48.072;11.970;2024-02-23T12:42:07;4.22;94.10
65207;SHT31;58477;48.072;11.970;2024-02-23T12:44:33;4.28;94.22
65207;SHT31;58477;48.072;11.970;2024-02-23T12:46:58;4.36;92.29
65207;SHT31;58477;48.072;11.970;2024-02-23T12:49:23;4.35;92.18
65207;SHT31;58477;48.072;11.970;2024-02-23T12:51:49;4.29;93.17
65207;SHT31;58477;48.072;11.970;2024-02-23T12:54:14;4.17;92.82
65207;SHT31;58477;48.072;11.970;2024-02-23T12:56:40;4.26;92.63
65207;SHT31;58477;48.072;11.970;2024-02-23T12:59:05;4.26;93.21
65207;SHT31;58477;48.072;11.970;2024-02-23T13:01:31;4.40;93.11
65207;SHT31;58477;48.072;11.970;2024-02-23T13:03:59;4.45;92.58
65207;SHT31;58477;48.072;11.970;2024-02-23T13:06:25;4.12;91.75
65207;SHT31;58477;48.072;11.970;2024-02-23T13:08:50;4.07;92.54
65207;SHT31;58477;48.072;11.970;2024-02-23T13:11:16;3.91;92.79
65207;SHT31;58477;48.072;11.970;2024-02-23T13:13:41;3.83;93.17
65207;SHT31;58477;48.072;11.970;2024-02-23T13:16:07;4.02;92.88
65207;SHT31;58477;48.072;11.970;2024-02-23T13:18:33;4.13;93.76
65207;SHT31;58477;48.072;11.970;2024-02-23T13:20:59;4.09;92.36
65207;SHT31;58477;48.072;11.970;2024-02-23T13:23:25;4.09;91.90
65207;SHT31;58477;48.072;11.970;2024-02-23T13:25:50;3.95;91.84
65207;SHT31;58477;48.072;11.970;2024-02-23T13:28:15;4.09;92.07
65207;SHT31;58477;48.072;11.970;2024-02-23T13:30:41;4.07;91.56
65207;SHT31;58477;48.072;11.970;2024-02-23T13:33:07;4.07;91.49
65207;SHT31;58477;48.072;11.970;2024-02-23T13:35:33;4.03;90.63
65207;SHT31;58477;48.072;11.970;2024-02-23T13:37:59;3.86;91.34
65207;SHT31;58477;48.072;11.970;2024-02-23T13:40:25;3.91;91.92
65207;SHT31;58477;48.072;11.970;2024-02-23T13:42:50;3.82;92.07
65207;SHT31;58477;48.072;11.970;2024-02-23T13:45:18;3.89;92.43
65207;SHT31;58477;48.072;11.970;2024-02-23T13:47:58;3.91;91.75
65207;SHT31;58477;48.072;11.970;2024-02-23T13:50:25;3.85;92.05
65207;SHT31;58477;48.072;11.970;2024-02-23T13:52:51;3.89;92.17
65207;SHT31;58477;48.072;11.970;2024-02-23T13:55:16;3.82;92.69
65207;SHT31;58477;48.072;11.970;2024-02-23T13:57:41;3.79;90.92
65207;SHT31;58477;48.072;11.970;2024-02-23T14:00:07;3.79;91.04
65207;SHT31;58477;48.072;11.970;2024-02-23T14:02:38;3.85;90.91
65207;SHT31;58477;48.072;11.970;2024-02-23T14:05:06;3.81;90.63
65207;SHT31;58477;48.072;11.970;2024-02-23T14:07:34;3.67;90.82
65207;SHT31;58477;48.072;11.970;2024-02-23T14:10:00;3.71;91.87
65207;SHT31;58477;48.072;11.970;2024-02-23T14:12:27;3.71;91.57
65207;SHT31;58477;48.072;11.970;2024-02-23T14:14:53;3.82;90.57
65207;SHT31;58477;48.072;11.970;2024-02-23T14:17:18;3.85;90.81
65207;SHT31;58477;48.072;11.970;2024-02-23T14:19:44;3.77;91.11
65207;SHT31;58477;48.072;11.970;2024-02-23T14:22:09;3.75;92.33
65207;SHT31;58477;48.072;11.970;2024-02-23T14:24:35;3.64;91.85
65207;SHT31;58477;48.072;11.970;2024-02-23T14:27:00;3.64;92.03
65207;SHT31;58477;48.072;11.970;2024-02-23T14:29:26;3.64;92.56
65207;SHT31;58477;48.072;11.970;2024-02-23T14:31:52;3.68;93.47
65207;SHT31;58477;48.072;11.970;2024-02-23T14:34:17;3.44;92.48
65207;SHT31;58477;48.072;11.970;2024-02-23T14:36:44;3.48;92.87
65207;SHT31;58477;48.072;11.970;2024-02-23T14:39:10;3.42;93.24
65207;SHT31;58477;48.072;11.970;2024-02-23T14:41:37;3.44;94.42
65207;SHT31;58477;48.072;11.970;2024-02-23T14:44:03;3.54;93.90
65207;SHT31;58477;48.072;11.970;2024-02-23T14:46:28;3.51;93.64
65207;SHT31;58477;48.072;11.970;2024-02-23T14:48:54;3.51;93.56
65207;SHT31;58477;48.072;11.970;2024-02-23T14:51:19;3.47;93.85
65207;SHT31;58477;48.072;11.970;2024-02-23T14:53:45;3.45;93.74
65207;SHT31;58477;48.072;11.970;2024-02-23T14:56:10;3.44;93.79
65207;SHT31;58477;48.072;11.970;2024-02-23T14:58:35;3.47;93.71
65207;SHT31;58477;48.072;11.970;2024-02-23T15:01:01;3.26;93.93
65207;SHT31;58477;48.072;11.970;2024-02-23T15:03:26;3.32;93.97
65207;SHT31;58477;48.072;11.970;2024-02-23T15:05:52;3.26;94.87
65207;SHT31;58477;48.072;11.970;2024-02-23T15:08:17;3.38;94.76
65207;SHT31;58477;48.072;11.970;2024-02-23T15:10:43;3.06;95.07
65207;SHT31;58477;48.072;11.970;2024-02-23T15:13:08;3.08;95.62
65207;SHT31;58477;48.072;11.970;2024-02-23T15:15:33;2.94;95.88
65207;SHT31;58477;48.072;11.970;2024-02-23T15:18:01;2.89;95.93
65207;SHT31;58477;48.072;11.970;2024-02-23T15:20:27;2.90;96.45
65207;SHT31;58477;48.072;11.970;2024-02-23T15:22:52;3.00;97.09